Time;durP1;ratioP1;P1;durP2;ratioP2;P2;SDS_P1;SDS_P2;PMS_P1;PMS_P2;Temp;Humidity;BMP_temperature;BMP_pressure;BME280_temperature;BME280_humidity;BME280_pressure;Samples;Min_cycle;Max_cycle;Signal;HPM_P1;HPM_P2
2023/08/28 00:01:57;;;;;;;3.13;1.65;;;;;;;-145.69;58.03;52052.28;5138515;27;20257;-81
2023/08/28 00:04:24;;;;;;;2.97;2.00;;;;;;;-145.69;57.64;52056.25;5138389;27;20205;-81
2023/08/28 00:06:52;;;;;;;5.78;1.83;;;;;;;-145.69;57.96;52026.53;5138169;27;20217;-80
2023/08/28 00:09:19;;;;;;;3.67;1.85;;;;;;;-145.69;57.90;52034.47;5138290;27;20204;-81
2023/08/28 00:11:45;;;;;;;4.75;1.95;;;;;;;-145.69;58.97;52040.41;5136979;27;20434;-81
2023/08/28 00:14:13;;;;;;;2.47;1.85;;;;;;;-145.69;57.91;52012.69;5138425;27;20314;-81
2023/08/28 00:16:40;;;;;;;2.67;1.88;;;;;;;-145.69;57.77;52042.38;5138047;27;20274;-81
2023/08/28 00:19:06;;;;;;;4.05;1.70;;;;;;;-145.69;57.85;52038.44;5137918;27;20241;-81
2023/08/28 00:21:33;;;;;;;2.67;1.55;;;;;;;-145.69;57.91;52028.53;5137057;27;20200;-81
2023/08/28 00:23:59;;;;;;;3.33;1.70;;;;;;;-145.69;57.68;52012.69;5136950;27;20231;-81
2023/08/28 00:26:26;;;;;;;2.55;1.52;;;;;;;-145.69;57.69;52028.53;5138810;27;20554;-81
2023/08/28 00:28:52;;;;;;;3.10;1.70;;;;;;;-145.69;58.01;51984.97;5138877;27;20188;-81
2023/08/28 00:31:20;;;;;;;3.10;1.80;;;;;;;-145.69;57.92;52042.38;5137591;27;20672;-81
2023/08/28 00:33:47;;;;;;;5.00;1.73;;;;;;;-145.69;57.85;52016.66;5138269;27;20227;-81
2023/08/28 00:36:13;;;;;;;9.20;2.00;;;;;;;-145.69;58.08;52044.38;5138020;27;20207;-81
2023/08/28 00:38:40;;;;;;;4.63;1.88;;;;;;;-145.69;57.91;52012.69;5136985;27;20220;-81
2023/08/28 00:41:06;;;;;;;2.40;1.95;;;;;;;-145.69;57.81;52052.28;5137382;27;20201;-81
2023/08/28 00:43:33;;;;;;;2.53;1.92;;;;;;;-145.69;57.55;52020.59;5136546;27;20713;-81
2023/08/28 00:46:01;;;;;;;4.55;2.03;;;;;;;-145.69;57.62;52024.56;5137481;27;20219;-81
2023/08/28 00:48:30;;;;;;;3.47;1.83;;;;;;;-145.69;57.89;52056.25;5136776;27;20228;-81
2023/08/28 00:50:57;;;;;;;3.83;1.85;;;;;;;-145.69;58.01;52024.56;5136399;27;20189;-81
2023/08/28 00:53:24;;;;;;;3.20;1.88;;;;;;;-145.69;57.89;52034.47;5137181;27;20193;-80
2023/08/28 00:55:51;;;;;;;1.73;1.50;;;;;;;-145.69;58.23;52018.63;5137352;27;20201;-81
2023/08/28 00:58:18;;;;;;;3.15;1.45;;;;;;;-145.69;58.51;52046.34;5136588;27;20385;-81
2023/08/28 01:00:44;;;;;;;3.50;1.40;;;;;;;-145.69;58.45;52024.56;5136977;27;20677;-81
2023/08/28 01:03:11;;;;;;;2.40;1.70;;;;;;;-145.69;58.45;52064.16;5136733;27;20200;-81
2023/08/28 01:05:46;;;;;;;2.67;1.90;;;;;;;-145.69;58.18;52016.66;5136810;27;20706;-81
2023/08/28 01:08:20;;;;;;;3.22;1.75;;;;;;;-145.69;58.51;52024.56;5133089;27;20563;-81
2023/08/28 01:10:52;;;;;;;2.80;1.80;;;;;;;-145.69;57.93;52038.44;5116421;28;20564;-81
2023/08/28 01:13:23;;;;;;;3.53;1.88;;;;;;;-145.69;57.79;52024.56;5130263;27;20210;-81
2023/08/28 01:15:50;;;;;;;3.30;2.15;;;;;;;-145.69;58.51;52038.44;5134355;27;20247;-81
2023/08/28 01:18:18;;;;;;;2.42;1.60;;;;;;;-145.69;58.12;52032.47;5136592;27;20205;-81
2023/08/28 01:20:47;;;;;;;2.33;1.85;;;;;;;-145.69;58.11;52016.66;5136162;27;20207;-82
2023/08/28 01:23:22;;;;;;;4.13;1.80;;;;;;;-145.69;58.00;52064.16;5136508;27;20200;-81
2023/08/28 01:25:52;;;;;;;5.47;1.95;;;;;;;-145.69;58.10;52016.66;5136854;27;20678;-81
2023/08/28 01:28:18;;;;;;;6.10;2.40;;;;;;;-145.69;58.80;52022.59;5136289;27;20655;-81
2023/08/28 01:30:45;;;;;;;6.03;1.80;;;;;;;-145.69;58.51;52032.47;5136333;27;20200;-81
2023/08/28 01:33:11;;;;;;;3.00;2.10;;;;;;;-145.69;58.60;52044.38;5136263;27;20184;-80
2023/08/28 01:35:38;;;;;;;2.40;1.75;;;;;;;-145.69;58.49;52032.47;5136951;27;20224;-81
2023/08/28 01:38:16;;;;;;;5.53;1.98;;;;;;;-145.69;58.35;52054.25;5137147;27;20544;-81
2023/08/28 01:40:49;;;;;;;3.42;1.73;;;;;;;-145.69;58.38;52042.38;5136403;27;20196;-81
2023/08/28 01:43:21;;;;;;;2.95;1.88;;;;;;;-145.69;58.36;52010.69;5136289;27;20603;-80
2023/08/28 01:45:48;;;;;;;2.90;2.00;;;;;;;-145.69;58.62;52060.22;5136552;27;20200;-81
2023/08/28 01:48:15;;;;;;;2.63;1.73;;;;;;;-145.69;58.41;52018.63;5136363;27;20197;-80
2023/08/28 01:50:41;;;;;;;5.13;2.00;;;;;;;-145.69;58.68;52010.69;5135128;27;20238;-81
2023/08/28 01:53:08;;;;;;;1.88;1.65;;;;;;;-145.69;58.64;52028.53;5136048;27;20556;-81
2023/08/28 01:56:22;;;;;;;4.63;1.92;;;;;;;-145.69;57.79;52032.47;5136091;27;20228;-81
2023/08/28 01:58:51;;;;;;;2.67;1.70;;;;;;;-145.69;58.48;52024.56;5136408;27;20275;-81
2023/08/28 02:01:17;;;;;;;4.45;1.70;;;;;;;-145.69;58.51;52020.59;5136305;27;20295;-81
2023/08/28 02:03:44;;;;;;;4.15;2.03;;;;;;;-145.69;58.16;52010.69;5134594;27;20200;-81
2023/08/28 02:06:11;;;;;;;2.85;1.70;;;;;;;-145.69;58.17;52016.66;5134815;27;20589;-80
2023/08/28 02:08:38;;;;;;;3.25;1.60;;;;;;;-145.69;58.52;52036.44;5134806;27;20647;-81
2023/08/28 02:11:04;;;;;;;2.20;1.90;;;;;;;-145.69;58.16;52044.38;5134802;27;20201;-81
2023/08/28 02:13:31;;;;;;;3.58;1.95;;;;;;;-145.69;58.30;52018.63;5134992;27;20284;-81
2023/08/28 02:16:00;;;;;;;1.98;1.73;;;;;;;-145.69;58.08;52012.69;5114338;28;20698;-81
2023/08/28 02:18:26;;;;;;;3.50;1.92;;;;;;;-145.69;58.41;52044.38;5114144;28;20198;-81
2023/08/28 02:20:53;;;;;;;3.53;1.95;;;;;;;-145.69;58.36;52050.31;5131342;27;20204;-81
2023/08/28 02:23:20;;;;;;;3.20;1.90;;;;;;;-145.69;58.24;52020.59;5134754;27;20226;-81
2023/08/28 02:25:48;;;;;;;2.72;1.73;;;;;;;-145.69;58.15;52012.69;5134345;27;20199;-80
2023/08/28 02:28:14;;;;;;;3.05;2.03;;;;;;;-145.69;58.20;52030.50;5134629;27;20204;-80
2023/08/28 02:30:41;;;;;;;5.40;1.85;;;;;;;-145.69;58.25;52032.47;5134904;27;20197;-80
2023/08/28 02:33:09;;;;;;;4.22;1.77;;;;;;;-145.69;58.20;52004.75;5134866;27;20204;-80
2023/08/28 02:35:35;;;;;;;2.38;1.75;;;;;;;-145.69;58.02;52028.53;5134755;27;20225;-80
2023/08/28 02:38:02;;;;;;;3.05;1.73;;;;;;;-145.69;58.51;52040.41;5135487;27;20544;-81
2023/08/28 02:40:29;;;;;;;3.38;1.70;;;;;;;-145.69;58.20;52040.41;5134702;27;20196;-81
2023/08/28 02:42:55;;;;;;;5.80;2.05;;;;;;;-145.69;57.61;52020.59;5134934;27;20594;-80
2023/08/28 02:45:22;;;;;;;4.95;1.92;;;;;;;-145.69;57.38;52018.63;5134784;27;20200;-80
2023/08/28 02:47:49;;;;;;;4.43;2.10;;;;;;;-145.69;57.19;52028.53;5134778;27;20197;-81
2023/08/28 02:50:17;;;;;;;3.13;1.95;;;;;;;-145.69;57.17;52050.31;5134188;27;20192;-81
2023/08/28 02:52:43;;;;;;;2.10;1.60;;;;;;;-145.69;57.35;52032.47;5134919;27;20699;-81
2023/08/28 02:55:10;;;;;;;4.00;2.00;;;;;;;-145.69;57.36;52040.41;5134477;28;20725;-81
2023/08/28 02:57:36;;;;;;;3.92;1.92;;;;;;;-145.69;57.41;52044.38;5129884;27;20685;-80
2023/08/28 03:00:03;;;;;;;2.72;2.10;;;;;;;-145.69;57.74;52050.31;5115619;28;20204;-81
2023/08/28 03:02:30;;;;;;;2.55;1.88;;;;;;;-145.69;57.83;52022.59;5134826;28;20207;-80
2023/08/28 03:04:56;;;;;;;2.97;1.80;;;;;;;-145.69;57.98;52008.72;5135039;27;20209;-81
2023/08/28 03:07:24;;;;;;;3.13;1.70;;;;;;;-145.69;57.85;52050.31;5134999;27;20219;-81
2023/08/28 03:09:50;;;;;;;2.55;1.73;;;;;;;-145.69;57.82;52018.63;5134477;28;20202;-81
2023/08/28 03:12:17;;;;;;;2.22;1.45;;;;;;;-145.69;57.88;52016.66;5134827;28;20224;-81
2023/08/28 03:14:43;;;;;;;3.95;1.92;;;;;;;-145.69;58.10;52020.59;5134549;27;20225;-81
2023/08/28 03:17:10;;;;;;;2.10;1.75;;;;;;;-145.69;57.68;52064.16;5138881;27;20250;-81
2023/08/28 03:19:37;;;;;;;3.53;1.80;;;;;;;-145.69;57.83;52032.47;5139537;27;20219;-81
2023/08/28 03:22:03;;;;;;;3.58;1.90;;;;;;;-145.69;57.95;52036.44;5140031;27;20287;-80
2023/08/28 03:24:31;;;;;;;6.82;2.00;;;;;;;-145.69;57.80;52046.34;5122881;27;20208;-81
2023/08/28 03:26:58;;;;;;;1.45;1.35;;;;;;;-145.69;57.85;52044.38;5118295;28;20598;-81
2023/08/28 03:29:25;;;;;;;2.40;1.70;;;;;;;-145.69;57.75;52064.16;5118695;28;20582;-80
2023/08/28 03:31:51;;;;;;;2.45;1.60;;;;;;;-145.69;57.78;52032.47;5118992;28;20205;-81
2023/08/28 03:34:18;;;;;;;2.13;1.63;;;;;;;-145.69;57.68;52018.63;5118537;28;20206;-81
2023/08/28 03:36:44;;;;;;;3.60;1.67;;;;;;;-145.69;57.55;51990.91;5123240;27;20197;-80
2023/08/28 03:39:11;;;;;;;4.95;1.98;;;;;;;-145.69;57.63;52038.44;5139494;27;20204;-81
2023/08/28 03:41:39;;;;;;;3.28;1.70;;;;;;;-145.69;57.88;52022.59;5137844;27;20288;-81
2023/08/28 03:44:05;;;;;;;2.75;1.98;;;;;;;-145.69;57.75;52060.22;5138943;27;20197;-81
2023/08/28 03:46:32;;;;;;;2.40;1.80;;;;;;;-145.69;57.87;52048.31;5139418;27;20667;-81
2023/08/28 03:48:58;;;;;;;3.40;1.67;;;;;;;-145.69;57.50;52024.56;5139428;27;20203;-81
2023/08/28 03:51:25;;;;;;;3.25;1.73;;;;;;;-145.69;58.67;52040.41;5136703;27;21045;-81
2023/08/28 03:53:51;;;;;;;3.90;1.40;;;;;;;-145.69;57.99;52060.22;5139031;27;20204;-81
2023/08/28 03:56:18;;;;;;;2.90;1.70;;;;;;;-145.69;57.84;52024.56;5139296;27;20317;-80
2023/08/28 03:58:45;;;;;;;3.13;1.85;;;;;;;-145.69;57.43;52020.59;5138361;27;20644;-81
2023/08/28 04:01:13;;;;;;;3.85;1.80;;;;;;;-145.69;57.68;52062.19;5138839;27;20224;-81
2023/08/28 04:03:40;;;;;;;1.90;1.70;;;;;;;-145.69;58.03;52026.53;5138549;27;20232;-81
2023/08/28 04:06:08;;;;;;;3.42;1.70;;;;;;;-145.69;57.88;52028.53;5137286;27;20656;-81
2023/08/28 04:08:35;;;;;;;3.00;2.03;;;;;;;-145.69;57.56;52076.03;5138485;27;20204;-81
2023/08/28 04:11:01;;;;;;;2.97;1.70;;;;;;;-145.69;58.05;52054.25;5138529;27;20201;-81
2023/08/28 04:13:28;;;;;;;2.92;1.80;;;;;;;-145.69;57.76;52040.41;5137644;27;20196;-81
2023/08/28 04:15:56;;;;;;;2.90;1.60;;;;;;;-145.69;57.72;52052.28;5137434;27;20236;-80
2023/08/28 04:18:23;;;;;;;5.28;2.13;;;;;;;-145.69;57.90;52040.41;5137925;27;20197;-81
2023/08/28 04:20:49;;;;;;;3.97;1.60;;;;;;;-145.69;57.41;52044.38;5137802;27;20212;-80
2023/08/28 04:23:17;;;;;;;3.95;1.80;;;;;;;-145.69;57.67;52022.59;5137841;27;20200;-81
2023/08/28 04:25:44;;;;;;;6.15;2.08;;;;;;;-145.69;57.73;52034.47;5138259;27;20258;-80
2023/08/28 04:28:10;;;;;;;5.80;2.00;;;;;;;-145.69;57.83;52040.41;5136818;27;20185;-81
2023/08/28 04:30:36;;;;;;;4.30;1.90;;;;;;;-145.69;57.28;52060.22;5137683;27;20204;-81
2023/08/28 04:33:05;;;;;;;3.33;2.03;;;;;;;-145.69;57.45;52032.47;5136186;27;20249;-81
2023/08/28 04:35:32;;;;;;;1.98;1.70;;;;;;;-145.69;57.85;52034.47;5138005;27;20245;-81
2023/08/28 04:38:01;;;;;;;4.78;2.10;;;;;;;-145.69;57.83;52062.19;5138374;27;20200;-81
2023/08/28 04:40:28;;;;;;;3.55;1.83;;;;;;;-145.69;57.62;52064.16;5138758;27;20192;-81
2023/08/28 04:42:54;;;;;;;4.72;2.20;;;;;;;-145.69;57.70;52052.28;5138045;27;20236;-81
2023/08/28 04:45:22;;;;;;;2.40;2.00;;;;;;;-145.69;57.78;52012.69;5137098;27;20562;-81
2023/08/28 04:47:48;;;;;;;3.05;2.20;;;;;;;-145.69;57.80;52036.44;5137194;27;20196;-81
2023/08/28 04:50:16;;;;;;;4.15;2.35;;;;;;;-145.69;57.20;52048.31;5137733;27;20203;-81
2023/08/28 04:52:43;;;;;;;4.25;1.60;;;;;;;-145.69;57.52;52030.50;5137744;27;20197;-81
2023/08/28 04:55:09;;;;;;;2.20;1.95;;;;;;;-145.69;57.52;52014.66;5135704;27;20605;-81
2023/08/28 04:57:36;;;;;;;3.22;1.95;;;;;;;-145.69;57.63;52032.47;5137702;27;20196;-81
2023/08/28 05:00:03;;;;;;;3.45;1.85;;;;;;;-145.69;57.79;52020.59;5138129;27;20205;-80
2023/08/28 05:02:30;;;;;;;2.78;1.90;;;;;;;-145.69;57.67;52020.59;5137905;27;20204;-81
2023/08/28 05:04:56;;;;;;;3.08;2.10;;;;;;;-145.69;57.77;52036.44;5136783;27;20200;-82
2023/08/28 05:07:24;;;;;;;4.10;2.00;;;;;;;-145.69;57.41;52046.34;5137405;27;20207;-81
2023/08/28 05:09:51;;;;;;;3.90;1.92;;;;;;;-145.69;57.67;52008.72;5139562;27;20219;-82
2023/08/28 05:12:17;;;;;;;2.03;1.70;;;;;;;-145.69;57.47;52026.53;5140994;27;20208;-81
2023/08/28 05:14:44;;;;;;;2.10;1.75;;;;;;;-145.69;57.55;52054.25;5122433;27;20261;-81
2023/08/28 05:17:11;;;;;;;2.92;1.70;;;;;;;-145.69;57.45;52038.44;5140033;27;20220;-81
2023/08/28 05:19:37;;;;;;;4.20;2.20;;;;;;;-145.69;57.80;52024.56;5138651;27;20449;-82
2023/08/28 05:22:04;;;;;;;2.33;2.08;;;;;;;-145.69;57.41;52034.47;5137827;27;20205;-82
2023/08/28 05:24:32;;;;;;;3.00;2.22;;;;;;;-145.69;57.27;52002.78;5137797;27;20203;-81
2023/08/28 05:26:58;;;;;;;2.92;2.00;;;;;;;-145.69;57.85;52020.59;5134821;27;20228;-81
2023/08/28 05:29:25;;;;;;;2.80;1.60;;;;;;;-145.69;56.91;52052.28;5116752;28;20644;-82
2023/08/28 05:31:52;;;;;;;2.60;2.05;;;;;;;-145.69;57.44;52030.50;5116859;28;20555;-81
2023/08/28 05:34:18;;;;;;;2.90;1.70;;;;;;;-145.69;57.95;52026.53;5117291;28;20200;-81
2023/08/28 05:36:45;;;;;;;3.42;2.25;;;;;;;-145.69;57.50;52020.59;5115036;28;20378;-81
2023/08/28 05:39:11;;;;;;;4.15;1.90;;;;;;;-145.69;57.28;52068.13;5114267;28;20199;-81
2023/08/28 05:41:39;;;;;;;9.68;2.50;;;;;;;-145.69;57.25;52024.56;5114636;28;20587;-82
2023/08/28 05:44:06;;;;;;;3.45;2.08;;;;;;;-145.69;57.49;52020.59;5134497;27;20208;-82
2023/08/28 05:46:32;;;;;;;3.22;1.90;;;;;;;-145.69;57.71;52052.28;5135142;27;20209;-81
2023/08/28 05:48:59;;;;;;;3.50;2.33;;;;;;;-145.69;57.53;52030.50;5135103;27;20231;-82
2023/08/28 05:51:26;;;;;;;3.40;1.90;;;;;;;-145.69;57.51;52044.38;5136547;27;20742;-81
2023/08/28 05:53:52;;;;;;;4.28;2.10;;;;;;;-145.69;57.64;52020.59;5135025;27;20201;-81
2023/08/28 05:56:19;;;;;;;5.90;2.08;;;;;;;-145.69;57.65;52044.38;5134335;27;20311;-82
2023/08/28 05:58:47;;;;;;;6.53;2.33;;;;;;;-145.69;57.46;52056.25;5134704;27;20199;-81
2023/08/28 06:01:13;;;;;;;3.05;1.85;;;;;;;-145.69;57.54;52004.75;5134483;27;20200;-81
2023/08/28 06:03:40;;;;;;;5.78;2.00;;;;;;;-145.69;57.42;52016.66;5134961;27;20197;-82
2023/08/28 06:06:07;;;;;;;4.38;1.83;;;;;;;-145.69;56.33;52020.59;5134990;27;20193;-81
2023/08/28 06:08:34;;;;;;;5.32;1.77;;;;;;;-145.69;56.74;52020.59;5136345;27;20189;-81
2023/08/28 06:11:00;;;;;;;2.70;1.63;;;;;;;-145.69;57.13;52052.28;5135716;27;20204;-81
2023/08/28 06:13:27;;;;;;;3.42;1.58;;;;;;;-145.69;57.38;52016.66;5136189;27;20232;-81
2023/08/28 06:15:55;;;;;;;4.70;1.52;;;;;;;-145.69;57.17;51990.91;5134891;27;20590;-82
2023/08/28 06:18:21;;;;;;;5.82;1.50;;;;;;;-145.69;57.05;52012.69;5136488;27;20292;-81
2023/08/28 06:20:48;;;;;;;2.15;1.60;;;;;;;-145.69;57.28;52028.53;5135158;27;20193;-81
2023/08/28 06:23:16;;;;;;;3.72;1.58;;;;;;;-145.69;56.57;52024.56;5134385;27;20192;-82
2023/08/28 06:25:43;;;;;;;3.13;1.65;;;;;;;-145.69;57.81;51988.91;5134845;27;20552;-82
2023/08/28 06:28:09;;;;;;;4.68;2.30;;;;;;;-145.69;56.43;51990.91;5134097;27;20201;-82
2023/08/28 06:30:36;;;;;;;3.85;2.17;;;;;;;-145.69;56.41;51965.16;5134625;27;20201;-81
2023/08/28 06:33:04;;;;;;;2.40;1.70;;;;;;;-145.69;56.90;51992.88;5134303;27;20655;-81
2023/08/28 06:35:32;;;;;;;2.47;1.67;;;;;;;-145.69;56.14;51992.88;5135460;27;20200;-81
2023/08/28 06:37:58;;;;;;;2.30;1.88;;;;;;;-145.69;56.78;52004.75;5136422;27;20193;-81
2023/08/28 06:40:25;;;;;;;4.57;2.30;;;;;;;-145.69;57.25;52014.66;5135592;27;20566;-81
2023/08/28 06:42:52;;;;;;;3.60;1.65;;;;;;;-145.69;55.08;52016.66;5134085;27;20224;-82
2023/08/28 06:45:18;;;;;;;3.35;2.00;;;;;;;-145.69;56.57;51992.88;5134095;27;20193;-81
2023/08/28 06:47:45;;;;;;;2.58;2.00;;;;;;;-145.69;56.21;52022.59;5134097;27;20681;-81
2023/08/28 06:50:13;;;;;;;4.43;1.83;;;;;;;-145.69;56.05;51990.91;5132666;27;20249;-82
2023/08/28 06:52:39;;;;;;;2.53;1.73;;;;;;;-145.69;55.72;51998.81;5135353;27;20193;-81
2023/08/28 06:55:06;;;;;;;2.55;1.80;;;;;;;-145.69;56.90;52028.53;5133996;27;20883;-81
2023/08/28 06:57:35;;;;;;;3.90;1.80;;;;;;;-145.69;56.85;52008.72;5134198;27;20220;-81
2023/08/28 07:00:02;;;;;;;2.30;1.80;;;;;;;-145.69;56.35;52018.63;5133994;27;20195;-81
2023/08/28 07:02:31;;;;;;;3.35;1.63;;;;;;;-145.69;57.01;52020.59;5135416;28;20214;-80
2023/08/28 07:04:57;;;;;;;3.28;2.05;;;;;;;-145.69;57.14;52012.69;5137553;28;20200;-81
2023/08/28 07:07:25;;;;;;;2.67;1.80;;;;;;;-145.69;55.96;51986.94;5137375;27;20205;-80
2023/08/28 07:09:52;;;;;;;3.83;1.95;;;;;;;-145.69;56.11;51988.91;5137160;27;20197;-81
2023/08/28 07:12:18;;;;;;;3.15;1.77;;;;;;;-145.69;56.35;52006.75;5135905;28;20202;-81
2023/08/28 07:14:45;;;;;;;2.90;1.90;;;;;;;-145.69;56.03;52000.81;5134532;27;20204;-81
2023/08/28 07:17:12;;;;;;;2.33;1.83;;;;;;;-145.69;54.98;52008.72;5134124;28;20311;-81
2023/08/28 07:19:39;;;;;;;2.13;1.80;;;;;;;-145.69;55.94;51979.03;5133494;27;20192;-81
2023/08/28 07:22:05;;;;;;;3.45;1.95;;;;;;;-145.69;56.16;52002.78;5133939;27;20199;-81
2023/08/28 07:24:33;;;;;;;2.30;1.85;;;;;;;-145.69;56.89;51986.94;5130061;28;20206;-81
2023/08/28 07:27:00;;;;;;;3.40;2.08;;;;;;;-145.69;56.85;51973.06;5135324;28;20667;-81
2023/08/28 07:29:27;;;;;;;2.88;2.03;;;;;;;-145.69;56.60;51988.91;5134028;28;20205;-81
2023/08/28 07:31:53;;;;;;;3.60;2.28;;;;;;;-145.69;57.72;52022.59;5133416;28;20702;-81
2023/08/28 07:34:20;;;;;;;3.40;1.95;;;;;;;-145.69;57.25;51988.91;5134110;28;20204;-81
2023/08/28 07:36:46;;;;;;;2.15;1.60;;;;;;;-145.69;57.30;51984.97;5133692;28;20257;-81
2023/08/28 07:39:13;;;;;;;5.07;2.03;;;;;;;-145.69;55.31;51959.22;5135742;28;20242;-81
2023/08/28 07:41:40;;;;;;;3.42;2.10;;;;;;;-145.69;55.94;51994.88;5135048;28;20208;-81
2023/08/28 07:44:07;;;;;;;3.80;1.90;;;;;;;-145.69;56.42;51986.94;5136452;28;20288;-81
2023/08/28 07:46:34;;;;;;;2.97;1.70;;;;;;;-145.69;57.39;51967.13;5134502;28;20691;-82
2023/08/28 07:49:00;;;;;;;3.45;1.95;;;;;;;-145.69;56.17;51996.84;5133351;28;20201;-81
2023/08/28 07:51:27;;;;;;;2.97;2.38;;;;;;;-145.69;56.78;51996.84;5133651;28;20276;-81
2023/08/28 07:53:55;;;;;;;4.85;2.13;;;;;;;-145.69;56.57;52004.75;5133420;28;20208;-81
2023/08/28 07:56:22;;;;;;;2.22;1.80;;;;;;;-145.69;54.99;51981.00;5133168;27;20311;-82
2023/08/28 07:58:49;;;;;;;2.78;2.25;;;;;;;-145.69;54.00;51949.31;5133577;27;20636;-81
2023/08/28 08:01:16;;;;;;;5.65;2.35;;;;;;;-145.69;54.92;51973.06;5134400;27;20193;-81
2023/08/28 08:03:42;;;;;;;5.45;2.30;;;;;;;-145.69;54.38;51977.03;5135767;27;20189;-82
2023/08/28 08:06:09;;;;;;;4.43;2.40;;;;;;;-145.69;53.74;51975.06;5137234;27;20205;-81
2023/08/28 08:08:35;;;;;;;3.20;2.03;;;;;;;-145.69;53.45;51990.91;5136329;27;20193;-81
2023/08/28 08:11:02;;;;;;;3.13;2.40;;;;;;;-145.69;53.60;51961.19;5137344;27;20654;-81
2023/08/28 08:13:29;;;;;;;9.63;3.08;;;;;;;-145.69;52.87;51975.06;5137213;27;20309;-81
2023/08/28 08:15:57;;;;;;;3.08;1.80;;;;;;;-145.69;52.51;51961.19;5136761;27;20643;-81
2023/08/28 08:18:23;;;;;;;4.72;2.03;;;;;;;-145.69;52.56;51977.03;5137158;27;20250;-82
2023/08/28 08:20:50;;;;;;;4.10;2.22;;;;;;;-145.69;51.54;51979.03;5137218;27;20241;-82
2023/08/28 08:23:16;;;;;;;3.92;2.13;;;;;;;-145.69;50.85;51979.03;5138103;27;20197;-81
2023/08/28 08:25:43;;;;;;;5.00;2.30;;;;;;;-145.69;50.27;51953.28;5136931;27;20213;-82
2023/08/28 08:28:10;;;;;;;3.03;2.17;;;;;;;-145.69;50.18;52008.72;5136717;27;20201;-82
2023/08/28 08:30:36;;;;;;;3.25;2.00;;;;;;;-145.69;49.86;51957.25;5137609;27;20236;-82
2023/08/28 08:33:05;;;;;;;3.78;2.28;;;;;;;-145.69;49.22;51901.78;5136668;27;20284;-82
2023/08/28 08:35:31;;;;;;;3.72;1.95;;;;;;;-145.69;48.12;51941.41;5137133;27;20200;-82
2023/08/28 08:37:58;;;;;;;2.08;1.52;;;;;;;-145.69;45.79;51935.47;5137601;27;20232;-80
2023/08/28 08:40:26;;;;;;;2.63;1.48;;;;;;;-145.69;46.44;51949.31;5138008;27;20899;-82
2023/08/28 08:42:53;;;;;;;2.13;1.20;;;;;;;-145.69;46.08;51945.34;5136009;27;20220;-83
2023/08/28 08:45:21;;;;;;;2.22;1.33;;;;;;;-145.69;45.19;51905.75;5136992;27;20196;-83
2023/08/28 08:47:51;;;;;;;1.15;1.00;;;;;;;-145.69;42.56;51921.59;5135613;27;20200;-82
2023/08/28 08:50:23;;;;;;;1.50;1.15;;;;;;;-145.69;42.03;51895.84;5136212;27;20189;-82
2023/08/28 08:52:50;;;;;;;1.60;1.30;;;;;;;-145.69;41.67;51889.91;5136136;27;20261;-83
2023/08/28 08:55:27;;;;;;;1.45;1.30;;;;;;;-145.69;42.53;51913.69;5136499;27;20285;-83
2023/08/28 08:58:00;;;;;;;2.20;1.30;;;;;;;-145.69;42.69;51878.03;5136529;27;20228;-82
2023/08/28 09:00:27;;;;;;;1.70;1.10;;;;;;;-145.69;43.08;51903.78;5135951;27;20284;-82
2023/08/28 09:02:55;;;;;;;2.53;1.00;;;;;;;-145.69;42.64;51895.84;5136148;27;20204;-83
2023/08/28 09:05:23;;;;;;;2.85;1.42;;;;;;;-145.69;42.08;51925.56;5131583;27;20197;-82
2023/08/28 09:07:51;;;;;;;3.72;1.45;;;;;;;-145.69;41.41;51909.72;5115843;28;20205;-83
2023/08/28 09:10:18;;;;;;;2.10;1.40;;;;;;;-145.69;41.09;51917.63;5118263;27;20272;-83
2023/08/28 09:12:46;;;;;;;4.75;1.55;;;;;;;-145.69;42.08;51911.69;5136146;27;20616;-82
2023/08/28 09:15:13;;;;;;;2.67;1.30;;;;;;;-145.69;42.39;51913.69;5134979;27;20295;-82
2023/08/28 09:17:40;;;;;;;3.30;1.52;;;;;;;-145.69;42.43;51939.41;5135235;27;20234;-82
2023/08/28 09:20:16;;;;;;;4.13;1.40;;;;;;;-145.69;42.21;51917.63;5135912;27;20246;-81
2023/08/28 09:22:58;;;;;;;1.98;1.48;;;;;;;-145.69;41.88;51913.69;5135695;27;20265;-83
2023/08/28 09:25:26;;;;;;;2.17;1.70;;;;;;;-145.69;42.57;51929.50;5135611;27;20195;-83
2023/08/28 09:27:54;;;;;;;3.05;1.40;;;;;;;-145.69;42.59;51927.53;5135457;27;20677;-81
2023/08/28 09:30:28;;;;;;;4.15;1.85;;;;;;;-145.69;42.51;51921.59;5135677;27;20678;-82
2023/08/28 09:32:57;;;;;;;2.75;1.65;;;;;;;-145.69;43.24;51901.78;5136147;27;20267;-81
2023/08/28 09:35:27;;;;;;;3.83;1.90;;;;;;;-145.69;43.27;51909.72;5127908;27;20698;-82
2023/08/28 09:37:58;;;;;;;3.03;1.58;;;;;;;-145.69;42.56;51909.72;5134866;27;20270;-83
2023/08/28 09:40:29;;;;;;;4.47;1.83;;;;;;;-145.69;42.63;51897.84;5134433;27;20201;-82
2023/08/28 09:42:59;;;;;;;4.68;1.75;;;;;;;-145.69;42.71;51907.72;5133813;27;20235;-82
2023/08/28 09:45:30;;;;;;;4.33;1.70;;;;;;;-145.69;42.72;51925.56;5134260;27;20429;-82
2023/08/28 09:48:03;;;;;;;3.50;1.55;;;;;;;-145.69;42.72;51899.81;5135264;27;20526;-83
2023/08/28 09:50:31;;;;;;;3.60;1.65;;;;;;;-145.69;42.49;51913.69;5134330;27;20188;-83
2023/08/28 09:53:08;;;;;;;2.83;1.50;;;;;;;-145.69;42.18;51913.69;5134479;27;20193;-82
2023/08/28 09:55:38;;;;;;;3.13;1.70;;;;;;;-145.69;42.67;51889.91;5115127;28;20204;-82
2023/08/28 09:58:08;;;;;;;6.18;1.80;;;;;;;-145.69;42.63;51893.88;5124566;27;20220;-83
2023/08/28 10:00:37;;;;;;;5.93;2.10;;;;;;;-145.69;42.28;51935.47;5134548;27;20212;-83
2023/08/28 10:03:05;;;;;;;3.55;1.70;;;;;;;-145.69;42.46;51901.78;5134696;27;20559;-82
2023/08/28 10:05:33;;;;;;;3.45;1.85;;;;;;;-145.69;42.83;51919.63;5134219;27;20197;-82
2023/08/28 10:08:03;;;;;;;4.07;2.10;;;;;;;-145.69;41.92;51909.72;5134153;27;20192;-82
2023/08/28 10:10:32;;;;;;;5.20;2.03;;;;;;;-145.69;42.25;51895.84;5136512;27;20218;-82
2023/08/28 10:13:04;;;;;;;4.28;2.00;;;;;;;-145.69;41.34;51887.94;5134025;27;20184;-82
2023/08/28 10:15:33;;;;;;;3.05;1.80;;;;;;;-145.69;40.39;51882.00;5134332;27;20666;-83
2023/08/28 10:18:05;;;;;;;3.97;2.10;;;;;;;-145.69;39.99;51887.94;5134405;27;20231;-82
2023/08/28 10:20:35;;;;;;;3.40;2.05;;;;;;;-145.69;40.68;51850.31;5134119;27;20675;-83
2023/08/28 10:23:03;;;;;;;2.30;1.58;;;;;;;-145.69;40.29;51885.94;5133758;27;20197;-81
2023/08/28 10:25:32;;;;;;;3.15;1.92;;;;;;;-145.69;40.23;51895.84;5133170;27;20208;-82
2023/08/28 10:27:59;;;;;;;2.70;1.63;;;;;;;-145.69;39.77;51878.03;5134628;27;20193;-82
2023/08/28 10:30:30;;;;;;;2.67;1.38;;;;;;;-145.69;39.80;51885.94;5133111;27;20662;-81
2023/08/28 10:32:59;;;;;;;2.83;1.83;;;;;;;-145.69;40.79;51862.19;5134128;27;20197;-82
2023/08/28 10:35:26;;;;;;;5.82;2.08;;;;;;;-145.69;40.91;51915.66;5133380;27;20196;-82
2023/08/28 10:37:55;;;;;;;4.22;2.10;;;;;;;-145.69;41.72;51885.94;5135914;27;20235;-83
2023/08/28 10:40:24;;;;;;;5.53;2.38;;;;;;;-145.69;42.68;51921.59;5134352;27;20651;-83
2023/08/28 10:42:57;;;;;;;4.32;2.05;;;;;;;-145.69;41.46;51901.78;5134370;27;20228;-82
2023/08/28 10:45:27;;;;;;;4.22;2.42;;;;;;;-145.69;42.59;51925.56;5133843;27;20236;-83
2023/08/28 10:47:57;;;;;;;5.35;2.42;;;;;;;-145.69;42.69;51937.44;5134497;27;20201;-83
2023/08/28 10:50:23;;;;;;;3.40;2.35;;;;;;;-145.69;42.96;51943.38;5134561;27;20193;-82
2023/08/28 10:52:59;;;;;;;3.08;2.40;;;;;;;-145.69;43.11;51933.47;5133862;27;20201;-82
2023/08/28 10:55:27;;;;;;;4.78;2.47;;;;;;;-145.69;43.96;51939.41;5134704;27;20201;-82
2023/08/28 10:57:55;;;;;;;4.38;2.58;;;;;;;-145.69;44.16;51911.69;5134162;27;20246;-82
2023/08/28 11:00:22;;;;;;;4.90;2.28;;;;;;;-145.69;43.94;51943.38;5134854;27;20591;-83
2023/08/28 11:03:09;;;;;;;3.45;2.30;;;;;;;-145.69;43.39;51937.44;5134618;27;20625;-82
2023/08/28 11:05:38;;;;;;;3.63;2.38;;;;;;;-145.69;44.33;51935.47;5134049;28;20203;-81
2023/08/28 11:08:06;;;;;;;2.97;2.40;;;;;;;-145.69;44.63;51961.19;5134066;28;20197;-82
2023/08/28 11:10:33;;;;;;;8.52;2.67;;;;;;;-145.69;45.27;51953.28;5132951;27;20201;-82
2023/08/28 11:13:06;;;;;;;3.85;2.58;;;;;;;-145.69;44.83;51953.28;5134104;28;20207;-82
2023/08/28 11:15:34;;;;;;;4.88;2.70;;;;;;;-145.69;44.44;51959.22;5134344;27;20231;-82
2023/08/28 11:18:29;;;;;;;5.55;3.05;;;;;;;-145.69;44.33;51939.41;5134380;28;20315;-82
2023/08/28 11:20:57;;;;;;;5.03;2.88;;;;;;;-145.69;44.02;51933.47;5133720;28;20203;-82